Time;durP1;ratioP1;P1;durP2;ratioP2;P2;SDS_P1;SDS_P2;PMS_P1;PMS_P2;Temp;Humidity;BMP_temperature;BMP_pressure;BME280_temperature;BME280_humidity;BME280_pressure;Samples;Min_cycle;Max_cycle;Signal;HPM_P1;HPM_P2
2023/08/23 00:02:01;;;;;;;7.10;6.40;;;21.90;99.90;;;22.89;99.53;98212.84;10384774;28;20236;-68
2023/08/23 00:07:05;;;;;;;6.07;5.50;;;21.90;99.90;;;22.92;99.08;98218.09;10386694;28;20666;-67
2023/08/23 00:12:09;;;;;;;6.60;6.10;;;21.90;99.90;;;22.83;99.05;98223.19;10386268;28;20226;-69
2023/08/23 00:17:13;;;;;;;7.55;6.80;;;21.70;99.90;;;22.77;99.31;98207.44;10391830;28;20230;-67
2023/08/23 00:22:16;;;;;;;7.78;6.93;;;21.70;99.90;;;22.68;99.86;98203.00;10385329;28;20688;-68
2023/08/23 00:27:20;;;;;;;7.55;6.40;;;21.60;99.90;;;22.60;100.00;98212.41;10389847;28;20233;-68
2023/08/23 00:32:23;;;;;;;7.60;6.35;;;21.60;99.90;;;22.41;100.00;98212.16;10387757;28;20482;-68
2023/08/23 00:37:26;;;;;;;7.07;6.47;;;21.50;99.90;;;22.47;100.00;98213.97;10388282;28;20225;-68
2023/08/23 00:42:31;;;;;;;7.50;6.90;;;21.60;99.90;;;22.34;100.00;98212.88;10389482;28;20222;-69
2023/08/23 00:47:34;;;;;;;7.80;7.05;;;21.40;99.90;;;22.31;100.00;98211.97;10416729;23;20235;-82
2023/08/23 00:52:38;;;;;;;7.55;6.32;;;21.40;99.90;;;22.34;100.00;98206.81;10453911;28;20229;-82
2023/08/23 00:57:57;;;;;;;7.32;6.63;;;21.40;99.90;;;22.22;100.00;98208.34;10457626;28;20235;-82
2023/08/23 01:03:01;;;;;;;7.80;7.10;;;21.30;99.90;;;22.15;100.00;98202.97;10457173;28;20649;-81
2023/08/23 01:08:14;;;;;;;6.50;5.90;;;21.30;99.90;;;22.11;100.00;98196.84;10454351;28;20270;-82
2023/08/23 01:13:29;;;;;;;7.07;6.47;;;21.20;99.90;;;22.00;100.00;98196.66;10454944;28;20304;-82
2023/08/23 01:18:32;;;;;;;7.90;7.22;;;21.10;99.90;;;22.01;100.00;98195.84;10454941;28;20312;-81
2023/08/23 01:23:38;;;;;;;7.95;7.18;;;21.10;99.90;;;22.04;100.00;98200.22;10454929;28;20229;-81
2023/08/23 01:28:41;;;;;;;7.63;6.95;;;21.10;99.90;;;21.93;100.00;98194.81;10454769;28;20221;-81
2023/08/23 01:33:51;;;;;;;7.18;6.47;;;21.00;99.90;;;21.84;100.00;98199.88;10454514;28;20221;-80
2023/08/23 01:38:58;;;;;;;7.82;7.03;;;21.00;99.90;;;21.65;100.00;98198.66;10456848;28;20225;-82
2023/08/23 01:44:01;;;;;;;8.35;7.57;;;20.70;99.90;;;21.50;100.00;98201.84;10454487;28;20236;-82
2023/08/23 01:49:05;;;;;;;8.32;7.53;;;20.60;99.90;;;21.47;100.00;98204.38;10457224;28;20228;-82
2023/08/23 01:54:09;;;;;;;8.18;7.15;;;20.60;99.90;;;21.48;100.00;98197.44;10454360;28;20312;-82
2023/08/23 01:59:12;;;;;;;8.63;6.82;;;20.60;99.90;;;21.56;100.00;98207.16;10455094;28;20225;-82
2023/08/23 02:04:19;;;;;;;7.80;6.63;;;20.70;99.90;;;21.51;100.00;98205.31;10453289;28;20251;-82
2023/08/23 02:09:24;;;;;;;7.32;6.68;;;20.60;99.90;;;21.41;100.00;98191.25;10456752;28;20239;-82
2023/08/23 02:14:27;;;;;;;7.72;7.03;;;20.50;99.90;;;21.40;100.00;98207.69;10454234;28;20245;-82
2023/08/23 02:19:30;;;;;;;7.18;6.68;;;20.50;99.90;;;21.30;100.00;98205.75;10452175;28;20236;-80
2023/08/23 02:24:35;;;;;;;8.02;7.25;;;20.50;99.90;;;21.26;100.00;98198.69;10451034;28;20225;-81
2023/08/23 02:29:38;;;;;;;8.10;7.30;;;20.30;99.90;;;21.26;100.00;98203.91;10449241;28;20248;-82
2023/08/23 02:34:41;;;;;;;7.80;7.15;;;20.40;99.90;;;21.19;100.00;98212.44;10449898;28;20248;-82
2023/08/23 02:39:46;;;;;;;7.65;6.95;;;20.30;99.90;;;21.17;100.00;98212.41;10454709;28;20238;-81
2023/08/23 02:44:49;;;;;;;7.80;7.05;;;20.30;99.90;;;21.02;100.00;98205.16;10448622;28;20217;-80
2023/08/23 02:49:52;;;;;;;7.32;6.68;;;20.20;99.90;;;21.15;100.00;98211.50;10451234;28;20229;-82
2023/08/23 02:54:57;;;;;;;7.85;7.13;;;20.20;99.90;;;21.10;100.00;98201.00;10450637;28;20365;-82
2023/08/23 03:00:00;;;;;;;8.13;7.35;;;20.30;99.90;;;21.05;100.00;98202.63;10446140;28;20319;-83
2023/08/23 03:05:03;;;;;;;8.38;7.40;;;20.10;99.90;;;20.86;100.00;98203.97;10447639;28;20249;-81
2023/08/23 03:10:09;;;;;;;8.10;7.30;;;20.00;99.90;;;20.89;100.00;98198.84;10451072;28;20252;-82
2023/08/23 03:15:13;;;;;;;9.38;7.25;;;20.00;99.90;;;20.87;100.00;98194.44;10445833;28;20252;-83
2023/08/23 03:20:16;;;;;;;7.47;6.88;;;20.00;99.90;;;20.77;100.00;98185.56;10450450;28;20235;-81
2023/08/23 03:25:20;;;;;;;9.00;8.13;;;19.90;99.90;;;20.75;100.00;98192.47;10448052;28;20231;-81
2023/08/23 03:30:23;;;;;;;8.07;7.40;;;19.90;99.90;;;20.78;100.00;98194.25;10438049;28;20308;-81
2023/08/23 03:35:28;;;;;;;8.18;7.40;;;19.90;99.90;;;20.65;100.00;98178.38;10439646;28;20221;-82
2023/08/23 03:40:37;;;;;;;7.95;7.28;;;19.80;99.90;;;20.64;100.00;98174.03;10444888;28;20328;-83
2023/08/23 03:45:47;;;;;;;7.47;6.78;;;19.80;99.90;;;20.58;100.00;98193.81;10439402;28;20229;-81
2023/08/23 03:50:50;;;;;;;7.65;7.05;;;19.70;99.90;;;20.50;100.00;98201.38;10440163;28;20620;-82
2023/08/23 03:55:55;;;;;;;8.20;7.40;;;19.70;99.90;;;20.56;100.00;98204.16;10456697;28;20240;-82
2023/08/23 04:00:59;;;;;;;8.68;7.88;;;19.70;99.90;;;20.54;100.00;98204.94;10443092;28;20367;-82
2023/08/23 04:06:02;;;;;;;7.90;7.18;;;19.60;99.90;;;20.54;100.00;98191.97;10442166;28;20312;-80
2023/08/23 04:11:07;;;;;;;8.23;7.53;;;19.60;99.90;;;20.37;100.00;98197.59;10442774;28;20321;-82
2023/08/23 04:16:12;;;;;;;7.65;6.95;;;19.50;99.90;;;20.37;100.00;98189.81;10438685;28;20225;-82
2023/08/23 04:21:16;;;;;;;8.85;8.02;;;19.50;99.90;;;20.39;100.00;98195.03;10451028;28;20286;-82
2023/08/23 04:26:20;;;;;;;8.98;8.07;;;19.50;99.90;;;20.30;100.00;98205.22;10450823;28;20229;-80
2023/08/23 04:31:23;;;;;;;8.73;7.65;;;19.50;99.90;;;20.38;100.00;98208.88;10452975;28;20224;-82
2023/08/23 04:36:26;;;;;;;8.38;7.65;;;19.50;99.90;;;20.29;100.00;98217.34;10450752;28;20228;-80
2023/08/23 04:41:31;;;;;;;8.43;7.82;;;19.50;99.90;;;20.35;100.00;98203.63;10461357;28;20220;-80
2023/08/23 04:46:34;;;;;;;9.88;8.15;;;19.50;99.90;;;20.37;100.00;98212.31;10463653;28;20307;-80
2023/08/23 04:51:38;;;;;;;9.10;7.57;;;19.50;99.90;;;20.40;100.00;98212.38;10465211;28;20244;-79
2023/08/23 04:56:42;;;;;;;8.95;8.02;;;19.50;99.90;;;20.48;100.00;98210.84;10472746;28;20233;-81
2023/08/23 05:01:45;;;;;;;8.80;7.57;;;19.50;99.90;;;20.40;100.00;98220.16;10461747;28;20336;-79
2023/08/23 05:06:49;;;;;;;8.13;7.45;;;19.50;99.90;;;20.40;100.00;98214.97;10460809;28;20282;-80
2023/08/23 05:11:53;;;;;;;7.80;7.05;;;19.50;99.90;;;20.56;99.58;98224.91;10467056;28;20237;-79
2023/08/23 05:16:56;;;;;;;8.30;7.50;;;19.60;99.90;;;20.61;99.20;98222.44;10466101;28;20289;-80
2023/08/23 05:21:59;;;;;;;7.55;6.93;;;19.80;99.90;;;20.77;98.46;98226.25;10453490;28;20786;-79
2023/08/23 05:27:04;;;;;;;7.70;7.00;;;19.90;99.90;;;21.34;94.71;98229.22;10451416;28;20813;-79
2023/08/23 05:32:07;;;;;;;8.40;7.57;;;20.20;99.90;;;22.01;91.50;98231.41;10455025;28;20679;-79
2023/08/23 05:37:10;;;;;;;8.68;7.82;;;20.70;99.90;;;22.16;87.66;98228.19;10461583;28;20315;-80
2023/08/23 05:42:15;;;;;;;8.27;7.57;;;20.80;99.90;;;21.94;91.54;98238.22;10447406;28;20317;-80
2023/08/23 05:47:18;;;;;;;7.95;7.25;;;20.90;99.90;;;23.08;87.06;98240.94;10458220;28;20240;-80
2023/08/23 05:52:22;;;;;;;7.97;7.25;;;22.20;99.90;;;24.07;79.41;98236.91;10462024;28;20224;-81
2023/08/23 05:57:26;;;;;;;7.63;6.90;;;23.40;99.90;;;24.90;76.83;98233.22;10459809;28;20222;-80
2023/08/23 06:02:29;;;;;;;7.43;6.93;;;24.10;99.90;;;25.62;72.48;98231.84;10452140;28;20319;-80
2023/08/23 06:07:33;;;;;;;6.53;5.70;;;24.50;99.90;;;26.41;68.96;98226.75;10457922;28;20894;-81
2023/08/23 06:12:37;;;;;;;7.90;5.88;;;24.80;99.90;;;26.45;68.18;98232.00;10452646;28;20236;-80
2023/08/23 06:17:41;;;;;;;6.35;5.85;;;24.50;99.90;;;26.77;66.52;98236.38;10457899;28;20310;-81
2023/08/23 06:22:44;;;;;;;6.75;6.25;;;24.80;99.90;;;27.29;63.88;98238.00;10457440;28;20232;-81
2023/08/23 06:27:49;;;;;;;6.43;5.85;;;25.00;99.90;;;27.34;63.33;98231.88;10460243;28;20593;-81
2023/08/23 06:32:53;;;;;;;7.20;6.50;;;25.30;99.90;;;27.28;64.20;98244.16;10458199;28;20247;-81
2023/08/23 06:37:56;;;;;;;7.65;6.90;;;25.10;99.90;;;27.29;65.29;98241.50;10463282;28;20707;-81
2023/08/23 06:43:00;;;;;;;7.70;7.03;;;25.00;99.90;;;27.59;63.87;98242.28;10461624;28;20246;-79
2023/08/23 06:48:07;;;;;;;7.22;6.57;;;25.40;99.90;;;28.60;59.46;98241.63;10456407;28;20234;-80
2023/08/23 06:53:10;;;;;;;8.05;7.25;;;26.60;99.90;;;29.31;56.47;98230.41;10459450;28;20228;-80
2023/08/23 06:58:15;;;;;;;6.93;6.22;;;27.10;99.90;;;28.91;56.24;98230.81;10463815;28;20235;-81
2023/08/23 07:03:19;;;;;;;7.10;6.07;;;27.00;99.90;;;29.37;54.93;98225.06;10463421;28;20244;-81
2023/08/23 07:08:22;;;;;;;7.97;6.50;;;27.20;99.90;;;30.11;53.03;98216.19;10460060;28;20239;-82
2023/08/23 07:13:26;;;;;;;7.00;6.25;;;28.00;99.90;;;30.51;52.25;98225.19;10462284;28;20235;-81
2023/08/23 07:18:30;;;;;;;7.65;6.75;;;28.60;99.90;;;30.89;51.65;98226.31;10464461;28;20232;-81
2023/08/23 07:23:33;;;;;;;8.30;7.60;;;28.70;99.90;;;30.66;53.23;98223.19;10461100;28;20232;-81
2023/08/23 07:28:38;;;;;;;8.13;7.25;;;28.00;99.90;;;30.13;55.46;98235.47;10452987;28;20247;-81
2023/08/23 07:33:41;;;;;;;8.15;7.40;;;28.00;99.90;;;30.61;54.73;98231.19;10452773;28;20228;-80
2023/08/23 07:38:44;;;;;;;8.15;7.35;;;28.40;99.90;;;31.31;51.79;98228.16;10445382;28;20296;-80
2023/08/23 07:43:48;;;;;;;7.60;6.90;;;28.70;99.90;;;30.76;54.09;98235.31;10451689;28;20220;-80
2023/08/23 07:48:52;;;;;;;8.43;7.63;;;28.70;99.90;;;30.77;53.39;98237.06;10453269;28;20229;-82
2023/08/23 07:53:55;;;;;;;8.02;7.22;;;28.90;99.90;;;30.79;55.37;98229.09;10446103;28;20235;-81
2023/08/23 07:58:59;;;;;;;8.35;7.57;;;29.10;99.90;;;30.73;53.85;98231.00;10452657;28;20360;-80
2023/08/23 08:04:02;;;;;;;8.10;7.32;;;29.40;99.90;;;30.86;53.50;98231.66;10447539;28;20224;-82
2023/08/23 08:09:06;;;;;;;8.35;7.63;;;29.30;99.90;;;31.55;51.73;98227.66;10452373;28;20743;-82
2023/08/23 08:14:10;;;;;;;8.30;7.50;;;30.20;99.90;;;31.68;50.58;98235.31;10449386;28;20259;-81
2023/08/23 08:19:13;;;;;;;7.97;7.28;;;30.20;99.90;;;31.77;51.12;98241.31;10459108;28;20233;-80
2023/08/23 08:24:16;;;;;;;8.40;7.32;;;30.40;99.90;;;31.90;49.96;98230.44;10443931;28;20973;-81
2023/08/23 08:29:21;;;;;;;6.97;6.38;;;30.70;99.90;;;31.89;49.59;98237.50;10452459;28;20238;-81
2023/08/23 08:34:24;;;;;;;7.50;6.80;;;30.30;99.90;;;31.76;49.59;98241.31;10456983;28;20292;-81
2023/08/23 08:39:27;;;;;;;6.95;6.25;;;30.30;99.90;;;32.10;47.86;98236.16;10447013;28;20234;-83
2023/08/23 08:44:32;;;;;;;6.63;6.03;;;30.90;98.50;;;32.59;45.75;98228.84;10456764;28;20228;-81
2023/08/23 08:49:35;;;;;;;6.60;6.00;;;31.40;97.20;;;32.09;47.58;98237.09;10451314;28;20220;-82
2023/08/23 08:54:40;;;;;;;6.95;6.35;;;30.80;98.10;;;32.07;47.41;98236.25;10460270;28;20684;-82
2023/08/23 08:59:46;;;;;;;6.75;6.22;;;30.50;98.00;;;31.95;46.63;98232.09;10437538;28;20229;-83
2023/08/23 09:04:49;;;;;;;7.05;6.35;;;30.50;97.20;;;31.34;46.08;98239.53;10455583;28;20222;-82
2023/08/23 09:09:54;;;;;;;6.47;5.88;;;29.90;96.60;;;31.50;45.83;98237.47;10468230;28;20244;-82
2023/08/23 09:15:05;;;;;;;5.82;5.43;;;30.00;96.40;;;31.59;45.55;98244.31;10467501;28;20307;-82
2023/08/23 09:20:10;;;;;;;6.15;5.65;;;30.30;95.70;;;31.81;45.81;98240.31;10462882;28;20363;-81
2023/08/23 09:25:13;;;;;;;6.88;5.82;;;30.80;95.60;;;32.41;46.04;98241.59;10458010;28;20232;-82
2023/08/23 09:30:18;;;;;;;6.63;6.03;;;31.40;95.70;;;32.60;45.90;98244.69;10455075;28;20228;-82
2023/08/23 09:35:21;;;;;;;6.60;6.13;;;31.50;95.70;;;32.37;45.65;98241.72;10463475;28;20303;-81
2023/08/23 09:40:26;;;;;;;6.80;6.20;;;31.10;95.80;;;32.64;46.07;98248.13;10461263;28;20720;-82
2023/08/23 09:45:31;;;;;;;7.10;6.50;;;31.50;95.60;;;32.69;45.54;98240.94;10455864;28;20216;-81
2023/08/23 09:50:35;;;;;;;6.97;6.10;;;31.70;95.20;;;32.72;43.31;98241.72;10460189;28;20231;-83
2023/08/23 09:55:40;;;;;;;5.93;5.43;;;31.70;93.30;;;32.44;43.64;98230.06;10458978;28;20347;-82
2023/08/23 10:00:49;;;;;;;6.82;5.50;;;31.20;94.30;;;32.35;45.56;98228.53;10458979;28;20856;-82
2023/08/23 10:05:53;;;;;;;6.32;5.80;;;31.40;94.90;;;32.36;43.42;98229.38;10452151;28;20225;-82
2023/08/23 10:10:56;;;;;;;6.70;6.03;;;31.20;93.40;;;32.15;44.65;98209.63;10460455;28;20300;-81
2023/08/23 10:16:03;;;;;;;5.88;5.38;;;31.20;93.90;;;32.51;44.93;98208.75;10465334;28;20259;-81
2023/08/23 10:21:06;;;;;;;7.10;5.95;;;31.60;93.90;;;32.80;43.49;98198.28;10464772;28;20240;-81
2023/08/23 10:26:18;;;;;;;6.00;5.40;;;31.80;93.00;;;32.72;43.21;98187.91;10459130;28;20230;-81
2023/08/23 10:31:27;;;;;;;5.15;4.82;;;31.70;93.20;;;32.95;40.22;98187.28;10451094;28;20295;-81
2023/08/23 10:36:32;;;;;;;5.22;4.82;;;31.80;91.00;;;32.50;41.47;98195.53;10453497;28;20225;-82
2023/08/23 10:41:35;;;;;;;4.55;4.20;;;31.60;91.50;;;32.69;40.30;98188.84;10459400;28;20229;-82
2023/08/23 10:46:45;;;;;;;5.40;5.00;;;31.80;90.50;;;32.75;40.34;98201.06;10457785;28;20232;-82
2023/08/23 10:51:49;;;;;;;6.00;5.50;;;31.80;90.50;;;32.92;42.37;98187.34;10458533;28;20228;-82
2023/08/23 10:56:52;;;;;;;5.47;4.97;;;31.80;91.50;;;32.96;42.53;98181.91;10454910;28;20225;-82
2023/08/23 11:01:57;;;;;;;7.95;5.15;;;31.70;91.90;;;32.89;41.02;98179.50;10450287;28;20225;-82
2023/08/23 11:07:00;;;;;;;5.30;4.90;;;31.60;91.20;;;32.75;42.38;98188.69;10459965;28;20255;-82
2023/08/23 11:12:04;;;;;;;5.72;5.22;;;31.60;92.10;;;32.60;42.80;98190.88;10459999;28;20224;-82
2023/08/23 11:17:11;;;;;;;5.70;5.20;;;31.70;91.60;;;32.74;43.29;98191.38;10457712;28;20259;-82
2023/08/23 11:22:14;;;;;;;5.82;5.30;;;31.80;92.00;;;32.67;43.84;98188.00;10456846;28;20220;-82
2023/08/23 11:27:19;;;;;;;6.45;5.78;;;31.80;92.50;;;32.79;43.15;98183.28;10451731;28;20228;-83
2023/08/23 11:32:25;;;;;;;5.88;5.47;;;31.90;92.20;;;32.53;44.47;98172.47;10461879;28;20241;-82
2023/08/23 11:37:29;;;;;;;6.00;5.50;;;31.70;92.60;;;32.35;44.61;98175.59;10460680;28;20224;-82
2023/08/23 11:42:33;;;;;;;5.95;5.45;;;31.70;93.00;;;32.30;43.74;98172.19;10461451;28;20312;-82
2023/08/23 11:47:37;;;;;;;6.13;5.72;;;31.50;92.10;;;32.11;45.00;98169.16;10452805;28;20237;-82
2023/08/23 11:52:41;;;;;;;5.22;4.72;;;31.30;92.80;;;31.92;44.85;98168.72;10457444;28;20252;-82
2023/08/23 11:57:44;;;;;;;4.90;4.20;;;31.10;92.50;;;31.93;42.74;98165.16;10460628;28;20260;-82
2023/08/23 12:02:49;;;;;;;4.82;4.53;;;31.20;91.00;;;31.80;42.39;98169.84;10454498;28;20225;-81
2023/08/23 12:07:53;;;;;;;5.18;4.70;;;30.90;90.60;;;31.72;43.68;98165.63;10450809;28;20224;-82
2023/08/23 12:12:56;;;;;;;6.00;4.45;;;30.90;91.90;;;31.91;42.87;98156.41;10451743;28;20236;-80
2023/08/23 12:18:00;;;;;;;5.05;4.65;;;31.10;91.10;;;31.80;42.41;98159.25;10457762;28;20278;-81
2023/08/23 12:23:06;;;;;;;6.03;4.63;;;30.90;91.10;;;31.79;42.93;98168.13;10444364;28;20228;-82
2023/08/23 12:28:09;;;;;;;5.35;4.80;;;30.80;91.30;;;31.75;44.93;98161.13;10453463;28;20319;-81
2023/08/23 12:33:13;;;;;;;5.43;4.88;;;30.90;92.80;;;31.77;43.72;98153.19;10447982;28;20347;-82
2023/08/23 12:38:17;;;;;;;5.72;5.32;;;31.00;91.90;;;31.64;44.96;98156.09;10447049;28;20331;-82
2023/08/23 12:43:20;;;;;;;6.35;5.30;;;30.80;92.50;;;31.77;45.72;98135.53;10450550;28;20244;-81
2023/08/23 12:48:24;;;;;;;5.82;5.32;;;31.00;93.00;;;31.54;45.77;98137.84;10460600;28;20629;-82
2023/08/23 12:53:27;;;;;;;5.50;5.10;;;30.70;92.80;;;31.60;46.14;98129.78;10465608;28;20617;-82
2023/08/23 12:58:31;;;;;;;5.63;5.15;;;30.80;93.30;;;31.59;46.02;98128.03;10462711;28;20228;-82
2023/08/23 13:03:35;;;;;;;6.03;5.53;;;30.70;93.70;;;31.56;45.66;98121.06;10451432;28;20231;-80
2023/08/23 13:08:39;;;;;;;5.70;5.03;;;30.70;93.10;;;31.41;47.14;98124.03;10461897;28;20229;-80
2023/08/23 13:13:42;;;;;;;6.43;5.30;;;30.70;93.90;;;31.63;45.83;98120.00;10462581;28;20749;-81
2023/08/23 13:18:47;;;;;;;5.75;5.25;;;30.70;93.60;;;31.38;47.13;98124.97;10462955;28;20233;-81
2023/08/23 13:23:50;;;;;;;5.20;4.80;;;30.60;94.00;;;31.33;46.72;98121.50;10461214;28;20323;-81
2023/08/23 13:28:53;;;;;;;6.05;5.55;;;30.60;94.10;;;31.75;45.78;98120.63;10462626;28;20225;-82
2023/08/23 13:33:58;;;;;;;6.10;5.60;;;30.90;93.50;;;31.64;45.47;98120.84;10459878;28;20255;-81
2023/08/23 13:39:02;;;;;;;6.18;4.95;;;30.80;92.90;;;31.57;46.38;98119.28;10466720;28;20224;-82
2023/08/23 13:44:06;;;;;;;5.90;5.30;;;30.80;93.40;;;31.61;45.72;98123.56;10465291;28;20228;-81
2023/08/23 13:49:10;;;;;;;6.00;5.32;;;30.70;93.20;;;31.31;46.25;98118.06;10468597;28;20325;-82
2023/08/23 13:54:13;;;;;;;6.10;5.50;;;30.50;93.40;;;31.21;46.33;98124.44;10468513;28;20247;-81
2023/08/23 13:59:17;;;;;;;5.75;4.93;;;30.40;93.30;;;31.64;44.96;98120.84;10464723;28;20228;-81
2023/08/23 14:04:23;;;;;;;5.95;5.35;;;30.80;92.50;;;31.64;45.17;98121.72;10469914;28;20657;-81
2023/08/23 14:09:26;;;;;;;5.57;5.00;;;30.80;93.10;;;31.82;44.21;98122.19;10455380;28;20227;-82
2023/08/23 14:14:30;;;;;;;5.57;5.03;;;30.90;92.10;;;31.94;44.51;98118.44;10461088;28;20254;-82
2023/08/23 14:19:48;;;;;;;5.38;4.88;;;31.20;91.90;;;31.76;44.87;98125.84;10466704;28;20278;-82
2023/08/23 14:24:51;;;;;;;6.70;4.70;;;31.00;92.40;;;31.42;44.88;98124.00;10462097;28;20227;-81
2023/08/23 14:29:54;;;;;;;5.28;4.78;;;30.60;92.30;;;31.04;45.78;98114.22;10471534;28;20236;-82
2023/08/23 14:34:59;;;;;;;5.47;5.07;;;30.20;93.00;;;31.29;46.85;98114.56;10466696;28;20221;-82
2023/08/23 14:40:03;;;;;;;5.47;4.90;;;30.30;93.70;;;31.29;45.51;98122.50;10464165;28;20233;-82
2023/08/23 14:45:08;;;;;;;5.60;5.00;;;30.40;93.10;;;31.11;46.98;98121.13;10464558;28;20284;-82
2023/08/23 14:50:12;;;;;;;5.18;4.53;;;30.20;93.60;;;31.29;45.24;98113.72;10461057;28;20229;-82
2023/08/23 14:55:16;;;;;;;5.18;4.68;;;30.40;92.30;;;31.19;43.86;98113.91;10462770;28;20736;-82
2023/08/23 15:00:20;;;;;;;5.10;4.32;;;30.30;91.60;;;31.05;44.41;98115.09;10439719;28;20229;-83
2023/08/23 15:05:25;;;;;;;6.25;4.72;;;30.10;91.80;;;31.17;45.23;98112.22;10447001;28;20287;-83
2023/08/23 15:10:28;;;;;;;6.55;4.55;;;30.20;92.50;;;31.05;44.77;98112.44;10439494;28;20308;-84
2023/08/23 15:15:31;;;;;;;4.82;4.38;;;30.10;92.00;;;30.70;44.00;98111.38;10445737;28;20225;-82
2023/08/23 15:20:36;;;;;;;5.00;4.60;;;29.90;91.30;;;30.73;44.23;98111.31;10441253;28;20231;-81
2023/08/23 15:25:39;;;;;;;5.10;4.57;;;29.80;91.40;;;30.52;45.66;98115.25;10443224;28;20859;-83
2023/08/23 15:30:42;;;;;;;4.72;4.32;;;29.60;92.20;;;30.59;43.93;98121.25;10440769;28;20236;-82
2023/08/23 15:35:47;;;;;;;23.23;21.38;;;29.70;91.10;;;30.47;42.73;98128.50;10439402;28;20236;-87
2023/08/23 15:40:50;;;;;;;5.32;4.10;;;29.60;90.10;;;30.23;42.31;98123.69;10440340;28;20316;-85
2023/08/23 15:45:57;;;;;;;4.75;3.88;;;29.30;89.80;;;30.07;42.11;98129.16;10440958;28;20221;-83
2023/08/23 15:51:06;;;;;;;3.75;3.42;;;29.20;88.80;;;29.91;41.93;98119.78;10442638;28;20236;-83
2023/08/23 15:56:12;;;;;;;4.82;4.00;;;29.00;89.40;;;29.77;43.06;98119.16;10446303;28;20224;-84
2023/08/23 16:01:15;;;;;;;4.10;3.70;;;28.90;90.00;;;29.68;42.62;98119.28;10441735;28;20244;-86
2023/08/23 16:06:20;;;;;;;4.45;3.85;;;28.80;89.70;;;29.67;43.13;98115.75;10441633;28;20698;-85
2023/08/23 16:11:24;;;;;;;4.03;3.45;;;28.80;90.20;;;29.64;43.83;98110.53;10446658;28;20950;-85
2023/08/23 16:16:27;;;;;;;4.22;3.83;;;28.70;90.60;;;29.63;43.49;98107.03;10456984;28;20300;-84
2023/08/23 16:21:32;;;;;;;4.45;4.05;;;28.70;90.60;;;29.58;44.48;98116.75;10463682;28;20216;-84
2023/08/23 16:26:36;;;;;;;8.85;7.93;;;28.70;91.00;;;29.51;44.39;98114.25;10460781;28;20290;-84
2023/08/23 16:31:40;;;;;;;29.45;27.15;;;28.60;91.10;;;29.49;45.52;98114.25;10458860;28;20251;-85
2023/08/23 16:36:44;;;;;;;8.88;8.07;;;28.50;92.10;;;29.50;47.77;98115.97;10467643;28;20232;-82
2023/08/23 16:41:47;;;;;;;4.57;4.18;;;28.50;94.20;;;29.48;46.23;98120.44;10458882;28;20320;-82
2023/08/23 16:46:53;;;;;;;4.80;4.40;;;28.50;92.20;;;29.40;45.68;98107.34;10462988;28;20877;-85
2023/08/23 16:51:58;;;;;;;4.55;4.07;;;28.40;92.40;;;29.33;47.01;98107.44;10457106;28;20240;-83
2023/08/23 16:57:01;;;;;;;5.30;4.80;;;28.30;92.70;;;29.30;47.42;98113.66;10455836;28;20228;-83
2023/08/23 17:02:06;;;;;;;5.30;4.65;;;28.20;93.60;;;29.12;48.12;98109.50;10459443;28;20230;-83
2023/08/23 17:07:11;;;;;;;4.60;4.20;;;28.10;93.80;;;28.97;48.21;98110.53;10451254;28;20300;-83
2023/08/23 17:12:14;;;;;;;4.30;3.95;;;27.90;94.00;;;28.83;49.01;98101.06;10458182;28;21056;-82
2023/08/23 17:17:18;;;;;;;4.55;4.10;;;27.80;95.00;;;28.72;49.93;98099.41;10456550;28;20591;-81
2023/08/23 17:22:23;;;;;;;8.25;7.25;;;27.70;95.60;;;28.78;53.72;98092.34;10453948;28;20232;-86
2023/08/23 17:27:27;;;;;;;10.63;9.73;;;27.60;98.20;;;28.62;55.23;98105.69;10453760;28;20228;-82
2023/08/23 17:32:33;;;;;;;5.28;4.78;;;27.50;99.20;;;28.57;55.61;98110.13;10455737;28;20252;-83
2023/08/23 17:37:37;;;;;;;4.90;4.50;;;27.50;99.80;;;28.39;57.48;98116.44;10446816;28;20224;-83
2023/08/23 17:42:41;;;;;;;5.20;4.72;;;27.30;99.90;;;28.20;59.48;98112.22;10445235;28;20705;-82
2023/08/23 17:47:44;;;;;;;5.78;5.18;;;27.10;99.90;;;27.92;61.70;98120.34;10452986;28;20263;-83
2023/08/23 17:52:49;;;;;;;5.40;5.00;;;26.80;99.90;;;27.74;63.43;98121.34;10444529;28;20733;-84
2023/08/23 17:57:56;;;;;;;5.47;5.00;;;26.60;99.90;;;27.38;64.93;98128.56;10447337;28;20284;-78
2023/08/23 18:03:00;;;;;;;6.10;5.50;;;26.30;99.90;;;27.34;63.98;98125.97;10462342;28;20240;-84
2023/08/23 18:08:05;;;;;;;6.00;5.43;;;26.20;99.90;;;27.26;63.86;98138.25;10457328;28;20220;-82
2023/08/23 18:13:08;;;;;;;5.75;5.20;;;26.10;99.90;;;27.14;63.73;98150.53;10456235;28;20242;-83
2023/08/23 18:18:11;;;;;;;6.07;5.50;;;26.00;99.90;;;26.91;65.86;98153.25;10456725;28;20224;-80
2023/08/23 18:23:16;;;;;;;6.05;5.53;;;25.80;99.90;;;26.58;67.54;98148.09;10452888;28;20601;-81
2023/08/23 18:28:20;;;;;;;5.70;5.20;;;25.60;99.90;;;26.27;67.83;98149.00;10448657;28;20339;-82
2023/08/23 18:33:25;;;;;;;5.93;5.43;;;25.30;99.90;;;26.23;67.41;98156.84;10455726;28;20216;-83
2023/08/23 18:38:30;;;;;;;6.15;5.60;;;25.30;99.90;;;26.13;69.11;98160.38;10456372;28;21075;-83
2023/08/23 18:43:34;;;;;;;6.70;6.05;;;25.10;99.90;;;25.81;69.64;98169.00;10459146;28;20296;-81
2023/08/23 18:48:37;;;;;;;9.02;5.72;;;24.80;99.90;;;25.83;71.67;98162.94;10460228;28;20225;-84
2023/08/23 18:53:42;;;;;;;6.95;6.35;;;24.60;99.90;;;25.74;73.03;98180.38;10454494;28;20252;-82
2023/08/23 18:58:47;;;;;;;7.03;6.32;;;24.50;99.90;;;25.52;74.08;98182.94;10450575;28;20745;-83
2023/08/23 19:03:50;;;;;;;6.85;6.25;;;24.40;99.90;;;25.26;75.22;98189.81;10447711;28;20220;-81
2023/08/23 19:08:55;;;;;;;6.78;6.18;;;24.20;99.90;;;25.19;76.30;98188.06;10439661;28;20228;-80
2023/08/23 19:13:58;;;;;;;6.63;6.05;;;24.10;99.90;;;24.98;75.78;98187.06;10443944;28;20316;-80
2023/08/23 19:19:02;;;;;;;6.88;6.22;;;24.00;99.90;;;24.91;75.66;98196.59;10448669;28;20343;-79
2023/08/23 19:24:07;;;;;;;7.25;6.63;;;23.80;99.90;;;24.85;74.42;98198.31;10446065;28;20227;-79
2023/08/23 19:29:10;;;;;;;6.88;6.38;;;23.80;99.90;;;24.67;74.94;98199.09;10451044;28;20220;-79
2023/08/23 19:34:14;;;;;;;7.00;6.50;;;23.60;99.90;;;24.46;76.81;98198.06;10453236;28;20787;-81
2023/08/23 19:39:19;;;;;;;7.18;6.57;;;23.40;99.90;;;24.37;77.81;98203.19;10443698;28;20243;-81
2023/08/23 19:44:23;;;;;;;7.20;6.55;;;23.30;99.90;;;24.30;78.05;98205.78;10445460;28;20233;-80
2023/08/23 19:49:26;;;;;;;7.03;6.45;;;23.20;99.90;;;24.24;78.50;98209.19;10447323;28;20227;-80
2023/08/23 19:54:31;;;;;;;7.18;6.57;;;23.20;99.90;;;24.05;79.40;98216.00;10442646;28;20232;-80
2023/08/23 19:59:34;;;;;;;7.20;6.60;;;23.00;99.90;;;23.83;79.60;98223.59;10444870;28;20229;-80
2023/08/23 20:04:38;;;;;;;7.35;6.65;;;22.80;99.90;;;23.77;80.06;98227.91;10438435;28;20309;-79
2023/08/23 20:09:42;;;;;;;7.18;6.60;;;22.70;99.90;;;23.68;79.87;98225.16;10443070;28;20240;-81
2023/08/23 20:14:46;;;;;;;7.47;6.78;;;22.60;99.90;;;23.44;79.80;98226.63;10441651;28;20270;-82
2023/08/23 20:19:49;;;;;;;7.50;6.90;;;22.50;99.90;;;23.31;79.01;98232.56;10446337;28;20282;-78
2023/08/23 20:24:56;;;;;;;7.38;6.78;;;22.30;99.90;;;23.30;78.73;98226.47;10446744;28;21176;-80
2023/08/23 20:30:00;;;;;;;7.60;6.90;;;22.30;99.90;;;22.98;81.74;98236.47;10441358;28;20236;-81
2023/08/23 20:35:06;;;;;;;8.00;7.32;;;22.10;99.90;;;23.03;82.53;98233.91;10444203;28;20308;-79
2023/08/23 20:40:13;;;;;;;7.80;7.13;;;22.00;99.90;;;22.88;83.64;98237.16;10445559;28;20309;-81
2023/08/23 20:45:16;;;;;;;7.70;7.00;;;21.90;99.90;;;22.83;83.48;98238.81;10444925;28;20227;-80
2023/08/23 20:50:20;;;;;;;7.97;7.30;;;21.90;99.90;;;22.66;83.62;98241.16;10443537;28;20231;-80
2023/08/23 20:55:25;;;;;;;7.03;6.53;;;21.70;99.90;;;22.56;83.72;98244.50;10435867;28;20725;-79
2023/08/23 21:00:29;;;;;;;7.28;6.57;;;21.60;99.90;;;22.51;84.65;98236.59;10441374;28;20244;-82